Terminal Aerodrome Forecast
Issued by NWS

Home | Current Version | Previous Version | Text Only | Print | Product List | Glossary On
Versions: 1 2 3 4 5 6 7 8 9 10 11 12 13 14 15 16 17 18 19 20 21 22 23 24
000
FTUS43 KBIS 261127
TAFMOT
TAF
KMOT 261127Z 2612/2712 21008KT P6SM SCT080 SCT100
     FM261600 22012KT P6SM BKN080 OVC120
     FM270000 18013KT P6SM SCT050 BKN070 OVC100
     FM270900 20006KT P6SM SCT100=

USA.gov is the U.S. government's official web portal to all federal, state and local government web resources and services.